Time;durP1;ratioP1;P1;durP2;ratioP2;P2;SDS_P1;SDS_P2;PMS_P1;PMS_P2;Temp;Humidity;BMP_temperature;BMP_pressure;BME280_temperature;BME280_humidity;BME280_pressure;Samples;Min_cycle;Max_cycle;Signal;HPM_P1;HPM_P2
2021/04/23 00:00:54;;;;;;;20.48;8.78;;;10.70;93.60;;;;;;1918856;73;21097;-68
2021/04/23 00:03:37;;;;;;;19.67;8.03;;;10.70;93.80;;;;;;1928716;73;21243;-67
2021/04/23 00:06:17;;;;;;;20.85;8.78;;;10.80;93.70;;;;;;1915947;73;21135;-68
2021/04/23 00:08:47;;;;;;;27.42;9.10;;;10.80;93.70;;;;;;1913466;73;21065;-69
2021/04/23 00:11:16;;;;;;;27.20;9.55;;;10.80;93.90;;;;;;1918977;73;21120;-68
2021/04/23 00:13:44;;;;;;;22.07;8.83;;;10.80;93.80;;;;;;1920320;73;21088;-68
2021/04/23 00:16:12;;;;;;;23.55;8.05;;;10.80;93.70;;;;;;1915480;73;21084;-68
2021/04/23 00:18:41;;;;;;;23.77;8.68;;;10.70;93.70;;;;;;1914246;73;21152;-68
2021/04/23 00:21:11;;;;;;;22.25;8.05;;;10.70;93.90;;;;;;1913692;73;21146;-68
2021/04/23 00:23:40;;;;;;;25.82;8.53;;;10.70;93.70;;;;;;1916795;73;21151;-68
2021/04/23 00:26:08;;;;;;;22.35;8.70;;;10.80;93.90;;;;;;1921846;73;21081;-69
2021/04/23 00:28:37;;;;;;;33.02;8.68;;;10.80;93.90;;;;;;1911307;73;21307;-68
2021/04/23 00:31:06;;;;;;;20.55;8.00;;;10.80;93.80;;;;;;1922912;73;21038;-69
2021/04/23 00:33:33;;;;;;;20.02;8.78;;;10.80;93.80;;;;;;1916204;73;21217;-68
2021/04/23 00:36:01;;;;;;;28.02;10.43;;;10.80;93.80;;;;;;1919660;73;21009;-68
2021/04/23 00:38:29;;;;;;;27.82;9.05;;;10.80;93.90;;;;;;1916716;73;21578;-68
2021/04/23 00:41:02;;;;;;;24.95;9.18;;;10.80;94.00;;;;;;1923351;73;21054;-68
2021/04/23 00:43:36;;;;;;;24.35;9.53;;;10.80;94.00;;;;;;1914236;73;21150;-67
2021/04/23 00:46:05;;;;;;;22.45;9.20;;;10.90;94.00;;;;;;1923246;73;21149;-69
2021/04/23 00:48:35;;;;;;;26.33;9.88;;;10.80;93.90;;;;;;1913731;73;21086;-68
2021/04/23 00:51:06;;;;;;;24.27;9.08;;;10.80;93.90;;;;;;1931385;73;21081;-68
2021/04/23 00:53:35;;;;;;;24.47;8.65;;;10.80;93.80;;;;;;1912884;73;21604;-68
2021/04/23 00:56:06;;;;;;;22.20;8.90;;;10.80;94.00;;;;;;1913159;73;21112;-69
2021/04/23 00:58:35;;;;;;;28.57;9.05;;;10.80;94.10;;;;;;1924856;72;21093;-68
2021/04/23 01:01:06;;;;;;;27.15;9.05;;;10.70;94.00;;;;;;1923001;73;21515;-68
2021/04/23 01:03:34;;;;;;;19.60;8.48;;;10.60;94.20;;;;;;1916420;73;21092;-69
2021/04/23 01:06:05;;;;;;;22.17;7.65;;;10.60;94.30;;;;;;1912335;73;21123;-68
2021/04/23 01:08:32;;;;;;;27.27;8.90;;;10.50;94.70;;;;;;1919423;73;21492;-68
2021/04/23 01:11:03;;;;;;;25.90;9.05;;;10.60;94.50;;;;;;1924242;73;21032;-69
2021/04/23 01:13:31;;;;;;;22.85;9.00;;;10.60;94.50;;;;;;1918489;73;21130;-69
2021/04/23 01:16:04;;;;;;;21.65;8.33;;;10.50;94.40;;;;;;1923249;73;21006;-69
2021/04/23 01:18:33;;;;;;;23.10;8.40;;;10.60;94.50;;;;;;1918553;73;21053;-68
2021/04/23 01:21:06;;;;;;;26.35;8.63;;;10.50;94.70;;;;;;1916530;73;21495;-68
2021/04/23 01:23:34;;;;;;;24.70;8.73;;;10.60;94.80;;;;;;1916269;73;21092;-68
2021/04/23 01:26:03;;;;;;;25.40;9.50;;;10.60;94.80;;;;;;1916321;73;21590;-68
2021/04/23 01:28:31;;;;;;;24.67;9.33;;;10.50;94.70;;;;;;1920310;73;21201;-68
2021/04/23 01:31:01;;;;;;;26.40;8.48;;;10.50;94.70;;;;;;1919211;73;21124;-68
2021/04/23 01:33:29;;;;;;;27.55;9.40;;;10.60;95.00;;;;;;1915183;73;21620;-67
2021/04/23 01:35:57;;;;;;;25.23;9.13;;;10.50;94.90;;;;;;1924483;73;21123;-67
2021/04/23 01:38:24;;;;;;;19.98;8.45;;;10.60;94.90;;;;;;1920640;73;21167;-68
2021/04/23 01:40:52;;;;;;;24.30;9.00;;;10.50;95.00;;;;;;1919928;73;21354;-67
2021/04/23 01:43:20;;;;;;;22.67;9.15;;;10.50;95.10;;;;;;1927408;73;21101;-68
2021/04/23 01:45:49;;;;;;;26.30;8.40;;;10.50;94.90;;;;;;1918403;73;22214;-68
2021/04/23 01:48:17;;;;;;;21.73;7.87;;;10.50;95.20;;;;;;1912545;73;21140;-68
2021/04/23 01:50:46;;;;;;;19.65;7.45;;;10.50;95.10;;;;;;1918950;73;21543;-68
2021/04/23 01:53:15;;;;;;;27.65;8.43;;;10.50;95.20;;;;;;1916194;73;21144;-68
2021/04/23 01:55:43;;;;;;;26.90;8.70;;;10.50;95.30;;;;;;1917444;73;21209;-67
2021/04/23 01:58:12;;;;;;;20.92;8.70;;;10.50;95.20;;;;;;1920124;73;21559;-68
2021/04/23 02:00:42;;;;;;;30.17;8.30;;;10.50;95.30;;;;;;1922748;73;21088;-68
2021/04/23 02:03:12;;;;;;;25.85;8.95;;;10.60;95.30;;;;;;1922052;73;21124;-68
2021/04/23 02:05:40;;;;;;;20.92;8.23;;;10.60;95.20;;;;;;1918076;73;21641;-68
2021/04/23 02:08:10;;;;;;;23.73;8.35;;;10.60;95.50;;;;;;1916453;73;21076;-68
2021/04/23 02:10:40;;;;;;;25.40;8.70;;;10.60;95.50;;;;;;1912750;73;21077;-68
2021/04/23 02:13:08;;;;;;;21.42;8.25;;;10.60;95.60;;;;;;1922120;73;21145;-68
2021/04/23 02:15:36;;;;;;;18.60;8.83;;;10.60;95.60;;;;;;1916545;73;21186;-68
2021/04/23 02:18:05;;;;;;;25.20;8.63;;;10.60;95.50;;;;;;1920037;73;21209;-68
2021/04/23 02:20:37;;;;;;;26.05;7.85;;;10.60;95.50;;;;;;1912300;74;21112;-68
2021/04/23 02:23:07;;;;;;;27.77;8.50;;;10.60;95.50;;;;;;1918042;73;21104;-68
2021/04/23 02:25:36;;;;;;;21.37;7.97;;;10.60;95.70;;;;;;1913853;74;21089;-67
2021/04/23 02:28:06;;;;;;;24.00;7.60;;;10.60;95.80;;;;;;1918206;73;21132;-68
2021/04/23 02:30:40;;;;;;;27.10;8.55;;;10.60;95.90;;;;;;1919605;73;21058;-68
2021/04/23 02:33:10;;;;;;;21.33;8.25;;;10.50;95.80;;;;;;1922159;73;21687;-68
2021/04/23 02:35:38;;;;;;;25.12;8.73;;;10.50;96.10;;;;;;1918806;72;21085;-68
2021/04/23 02:38:07;;;;;;;19.55;7.78;;;10.60;96.00;;;;;;1914453;73;21120;-68
2021/04/23 02:40:35;;;;;;;22.52;8.18;;;10.60;96.30;;;;;;1917324;73;21147;-68
2021/04/23 02:43:05;;;;;;;19.73;7.60;;;10.60;96.00;;;;;;1910779;73;21190;-70
2021/04/23 02:45:36;;;;;;;27.20;8.78;;;10.60;96.30;;;;;;1915068;73;21079;-69
2021/04/23 02:48:04;;;;;;;23.07;9.03;;;10.70;96.00;;;;;;1911127;73;21157;-68
2021/04/23 02:50:33;;;;;;;20.65;7.58;;;10.60;96.10;;;;;;1916811;73;21181;-68
2021/04/23 02:53:02;;;;;;;19.05;7.70;;;10.70;96.00;;;;;;1912050;73;21082;-67
2021/04/23 02:55:30;;;;;;;23.00;7.83;;;10.70;95.90;;;;;;1918652;73;21158;-67
2021/04/23 02:58:00;;;;;;;24.57;7.62;;;10.60;95.90;;;;;;1922205;73;21096;-68
2021/04/23 03:00:31;;;;;;;22.27;8.53;;;10.50;95.80;;;;;;1918987;73;21014;-67
2021/04/23 03:02:58;;;;;;;22.58;7.53;;;10.50;96.00;;;;;;1909682;73;21076;-69
2021/04/23 03:05:27;;;;;;;22.45;6.87;;;10.50;96.00;;;;;;1919861;73;21104;-70
2021/04/23 03:08:01;;;;;;;23.92;7.53;;;10.60;95.80;;;;;;1915375;73;21186;-70
2021/04/23 03:10:29;;;;;;;23.57;7.30;;;10.60;95.80;;;;;;1910019;73;21081;-70
2021/04/23 03:12:58;;;;;;;19.70;7.28;;;10.60;95.70;;;;;;1914523;73;21659;-69
2021/04/23 03:15:27;;;;;;;14.75;6.47;;;10.60;95.70;;;;;;1915092;73;21683;-70
2021/04/23 03:17:56;;;;;;;21.33;6.37;;;10.70;95.70;;;;;;1912699;73;22201;-68
2021/04/23 03:20:25;;;;;;;23.00;7.87;;;10.70;95.50;;;;;;1922075;73;21124;-69
2021/04/23 03:22:53;;;;;;;24.30;7.05;;;10.70;95.40;;;;;;1917692;73;21353;-69
2021/04/23 03:25:21;;;;;;;20.97;6.97;;;10.60;95.50;;;;;;1916598;73;21135;-68
2021/04/23 03:27:49;;;;;;;21.07;7.22;;;10.60;95.60;;;;;;1914607;73;21155;-69
2021/04/23 03:30:20;;;;;;;19.20;7.35;;;10.60;95.60;;;;;;1923367;73;21171;-68
2021/04/23 03:32:47;;;;;;;21.82;7.67;;;10.60;95.60;;;;;;1912427;73;22291;-68
2021/04/23 03:35:15;;;;;;;20.25;6.90;;;10.60;95.60;;;;;;1915375;73;21444;-68
2021/04/23 03:37:44;;;;;;;20.32;7.15;;;10.60;95.60;;;;;;1917051;73;21576;-68
2021/04/23 03:40:13;;;;;;;18.75;6.85;;;10.60;95.60;;;;;;1916411;73;21073;-68
2021/04/23 03:42:41;;;;;;;20.95;7.35;;;10.50;95.60;;;;;;1918215;73;21154;-68
2021/04/23 03:45:11;;;;;;;17.02;6.92;;;10.40;95.70;;;;;;1914329;74;21057;-68
2021/04/23 03:47:38;;;;;;;18.85;7.10;;;10.50;95.80;;;;;;1921785;73;21142;-68
2021/04/23 03:50:08;;;;;;;24.00;7.78;;;10.50;95.70;;;;;;1911834;73;21387;-68
2021/04/23 03:52:36;;;;;;;19.95;7.65;;;10.40;95.90;;;;;;1918396;73;21198;-68
2021/04/23 03:55:06;;;;;;;20.90;6.75;;;10.40;95.90;;;;;;1918406;74;21108;-67
2021/04/23 03:57:36;;;;;;;17.87;6.53;;;10.40;96.00;;;;;;1918718;73;21199;-68
2021/04/23 04:00:09;;;;;;;22.75;7.37;;;10.40;96.00;;;;;;1920992;73;21150;-68
2021/04/23 04:02:37;;;;;;;24.32;7.12;;;10.40;96.00;;;;;;1913713;73;21081;-68
2021/04/23 04:05:06;;;;;;;17.25;7.67;;;10.40;96.00;;;;;;1915331;73;21538;-67
2021/04/23 04:07:33;;;;;;;21.15;8.05;;;10.40;95.90;;;;;;1921997;72;21093;-68
2021/04/23 04:10:01;;;;;;;24.63;7.78;;;10.40;96.00;;;;;;1916304;73;21174;-68
2021/04/23 04:12:29;;;;;;;21.40;7.25;;;10.30;96.00;;;;;;1921628;73;21100;-68
2021/04/23 04:14:56;;;;;;;23.07;7.35;;;10.30;96.20;;;;;;1917807;73;21065;-68
2021/04/23 04:17:24;;;;;;;18.92;7.20;;;10.30;96.30;;;;;;1915208;73;21116;-68
2021/04/23 04:19:51;;;;;;;23.52;7.92;;;10.30;96.30;;;;;;1920125;73;21526;-68
2021/04/23 04:22:19;;;;;;;24.45;8.70;;;10.20;96.30;;;;;;1918140;73;21079;-68
2021/04/23 04:24:46;;;;;;;20.10;7.95;;;10.10;96.30;;;;;;1917033;73;21053;-68
2021/04/23 04:27:16;;;;;;;22.35;8.45;;;10.20;96.60;;;;;;1914766;73;21562;-67
2021/04/23 04:29:45;;;;;;;17.20;7.65;;;10.20;96.50;;;;;;1923248;73;21112;-68
2021/04/23 04:32:13;;;;;;;20.35;8.03;;;10.20;96.40;;;;;;1921174;73;21108;-68
2021/04/23 04:34:40;;;;;;;19.35;7.85;;;10.20;96.60;;;;;;1918774;73;21158;-69
2021/04/23 04:37:09;;;;;;;27.25;8.15;;;10.20;96.70;;;;;;1927176;73;21189;-68
2021/04/23 04:39:36;;;;;;;24.00;7.60;;;10.20;96.60;;;;;;1931522;73;21174;-68
2021/04/23 04:42:04;;;;;;;21.07;7.33;;;10.20;96.90;;;;;;1922934;73;21062;-68
2021/04/23 04:44:32;;;;;;;20.70;7.30;;;10.30;96.80;;;;;;1916270;73;21619;-69
2021/04/23 04:47:00;;;;;;;20.72;7.58;;;10.30;96.60;;;;;;1922977;73;21543;-68
2021/04/23 04:49:27;;;;;;;21.65;7.25;;;10.30;96.60;;;;;;1919532;73;21066;-68
2021/04/23 04:51:55;;;;;;;22.58;7.70;;;10.30;96.70;;;;;;1916203;73;21077;-68
2021/04/23 04:54:22;;;;;;;21.27;8.63;;;10.30;96.40;;;;;;1923128;73;21080;-68
2021/04/23 04:56:50;;;;;;;22.10;7.55;;;10.30;96.60;;;;;;1916080;73;21124;-68
2021/04/23 04:59:18;;;;;;;24.90;8.50;;;10.30;96.70;;;;;;1919043;73;21120;-68
2021/04/23 05:01:45;;;;;;;25.15;8.48;;;10.20;96.70;;;;;;1923110;73;21202;-68
2021/04/23 05:04:13;;;;;;;19.67;8.25;;;10.30;96.60;;;;;;1921846;73;21104;-68
2021/04/23 05:06:40;;;;;;;22.77;8.55;;;10.30;96.60;;;;;;1925486;73;21137;-68
2021/04/23 05:09:08;;;;;;;23.80;7.92;;;10.30;96.60;;;;;;1925230;73;21057;-67
2021/04/23 05:11:35;;;;;;;21.93;7.92;;;10.40;96.50;;;;;;1912505;73;21811;-67
2021/04/23 05:14:03;;;;;;;26.15;7.50;;;10.40;96.30;;;;;;1924265;73;21097;-70
2021/04/23 05:16:31;;;;;;;25.45;7.62;;;10.40;96.30;;;;;;1910174;73;21081;-70
2021/04/23 05:18:58;;;;;;;18.23;7.80;;;10.40;96.00;;;;;;1914957;74;21165;-70
2021/04/23 05:21:26;;;;;;;23.83;7.78;;;10.50;95.80;;;;;;1915773;73;21088;-70
2021/04/23 05:23:53;;;;;;;23.87;8.30;;;10.50;95.70;;;;;;1919597;74;21162;-70
2021/04/23 05:26:21;;;;;;;18.65;7.95;;;10.50;95.60;;;;;;1916002;73;21150;-70
2021/04/23 05:28:48;;;;;;;21.68;8.05;;;10.60;95.90;;;;;;1914159;73;21030;-68
2021/04/23 05:31:16;;;;;;;24.30;8.28;;;10.50;95.80;;;;;;1916729;73;21092;-67
2021/04/23 05:33:43;;;;;;;20.62;8.30;;;10.60;95.90;;;;;;1916463;74;21076;-69
2021/04/23 05:36:11;;;;;;;22.87;7.33;;;10.50;95.40;;;;;;1914781;73;21046;-73
2021/04/23 05:38:38;;;;;;;20.17;7.42;;;10.60;95.50;;;;;;1919246;74;21488;-73
2021/04/23 05:41:06;;;;;;;23.22;8.23;;;10.60;95.50;;;;;;1918152;73;21581;-66
2021/04/23 05:43:33;;;;;;;22.87;7.35;;;10.60;95.40;;;;;;1918251;73;21577;-66
2021/04/23 05:46:01;;;;;;;19.75;7.72;;;10.60;95.30;;;;;;1913156;73;21135;-68
2021/04/23 05:48:28;;;;;;;23.73;8.35;;;10.70;95.40;;;;;;1921482;73;21072;-66
2021/04/23 05:50:56;;;;;;;26.52;8.33;;;10.70;95.60;;;;;;1915458;73;21073;-67
2021/04/23 05:53:24;;;;;;;21.42;8.38;;;10.70;95.60;;;;;;1913281;73;21120;-66
2021/04/23 05:55:51;;;;;;;28.12;8.18;;;10.80;95.50;;;;;;1920096;73;21209;-67
2021/04/23 05:58:19;;;;;;;20.92;8.23;;;10.80;95.80;;;;;;1917390;73;21123;-67
2021/04/23 06:00:46;;;;;;;24.87;8.78;;;10.90;95.40;;;;;;1921000;73;21181;-67
2021/04/23 06:03:14;;;;;;;25.23;7.90;;;10.90;95.20;;;;;;1914692;73;21186;-67
2021/04/23 06:05:42;;;;;;;23.70;8.18;;;10.90;95.20;;;;;;1919469;73;22154;-66
2021/04/23 06:08:12;;;;;;;23.22;7.33;;;10.90;94.90;;;;;;1921802;73;21120;-66
2021/04/23 06:10:42;;;;;;;23.57;7.90;;;10.90;94.90;;;;;;1917037;73;21088;-67
2021/04/23 06:13:09;;;;;;;22.67;6.83;;;11.00;95.10;;;;;;1914887;73;21104;-67
2021/04/23 06:15:37;;;;;;;26.75;7.50;;;11.00;94.90;;;;;;1916548;73;21522;-67
2021/04/23 06:18:05;;;;;;;21.60;6.95;;;11.00;94.70;;;;;;1914092;73;21128;-67
2021/04/23 06:20:34;;;;;;;18.80;6.35;;;11.10;95.00;;;;;;1913582;73;21104;-67
2021/04/23 06:23:03;;;;;;;22.77;7.10;;;11.00;94.70;;;;;;1918023;73;21507;-66
2021/04/23 06:25:31;;;;;;;17.90;7.08;;;11.00;94.80;;;;;;1918099;73;21119;-66
2021/04/23 06:27:59;;;;;;;22.13;7.17;;;11.10;94.90;;;;;;1919782;73;21092;-65
2021/04/23 06:30:29;;;;;;;22.90;6.30;;;11.10;94.40;;;;;;1922127;73;21025;-67
2021/04/23 06:32:59;;;;;;;20.95;6.92;;;11.10;94.50;;;;;;1913473;73;21046;-66
2021/04/23 06:35:30;;;;;;;13.60;6.53;;;11.20;94.30;;;;;;1913330;73;21107;-66
2021/04/23 06:37:57;;;;;;;22.87;6.95;;;11.20;94.20;;;;;;1915421;73;21496;-66
2021/04/23 06:40:25;;;;;;;17.82;6.42;;;11.30;94.00;;;;;;1917646;73;21010;-68
2021/04/23 06:42:53;;;;;;;20.62;6.20;;;11.30;93.80;;;;;;1918766;73;21150;-67
2021/04/23 06:45:22;;;;;;;23.85;6.03;;;11.30;93.40;;;;;;1916829;73;20990;-66
2021/04/23 06:47:50;;;;;;;23.57;6.37;;;11.40;93.50;;;;;;1924224;73;21081;-66
2021/04/23 06:50:21;;;;;;;19.52;5.42;;;11.40;93.30;;;;;;1920316;73;21081;-66
2021/04/23 06:52:49;;;;;;;18.87;5.67;;;11.40;93.10;;;;;;1917404;73;21100;-65
2021/04/23 06:55:18;;;;;;;16.12;4.58;;;11.40;92.90;;;;;;1917152;73;21065;-65
2021/04/23 06:57:46;;;;;;;21.17;4.80;;;11.40;93.30;;;;;;1915221;73;21132;-65
2021/04/23 07:00:17;;;;;;;15.48;4.90;;;11.50;93.20;;;;;;1915393;73;21065;-67
2021/04/23 07:02:44;;;;;;;16.62;5.47;;;11.50;92.70;;;;;;1914520;73;21546;-65
2021/04/23 07:05:13;;;;;;;19.12;4.80;;;11.60;92.70;;;;;;1914514;73;21608;-65
2021/04/23 07:07:41;;;;;;;21.02;5.00;;;11.60;92.70;;;;;;1917203;74;21117;-66
2021/04/23 07:10:11;;;;;;;17.48;5.10;;;11.70;92.80;;;;;;1913859;73;21057;-65
2021/04/23 07:12:39;;;;;;;22.73;5.00;;;11.70;92.80;;;;;;1923393;73;21621;-65
2021/04/23 07:15:09;;;;;;;15.83;4.30;;;11.80;92.50;;;;;;1919626;73;21120;-65
2021/04/23 07:17:37;;;;;;;18.87;4.92;;;11.80;92.40;;;;;;1919950;73;21186;-65
2021/04/23 07:20:05;;;;;;;18.80;4.90;;;11.80;92.70;;;;;;1917296;73;21194;-66
2021/04/23 07:22:33;;;;;;;23.55;4.67;;;11.80;92.50;;;;;;1917590;73;21158;-66
2021/04/23 07:25:00;;;;;;;14.50;4.20;;;11.80;92.20;;;;;;1920797;73;21573;-65
2021/04/23 07:27:28;;;;;;;17.95;4.78;;;11.90;92.20;;;;;;1916876;73;21219;-65
2021/04/23 07:29:55;;;;;;;18.02;4.30;;;12.00;92.00;;;;;;1915297;73;21078;-65
2021/04/23 07:32:23;;;;;;;14.90;4.50;;;11.90;92.10;;;;;;1918791;73;21158;-65
2021/04/23 07:34:50;;;;;;;20.65;5.00;;;12.00;92.30;;;;;;1918240;73;21191;-67
2021/04/23 07:37:18;;;;;;;13.72;4.20;;;12.10;91.90;;;;;;1916123;73;21134;-65
2021/04/23 07:39:46;;;;;;;18.80;5.00;;;12.00;91.80;;;;;;1920476;73;21029;-66
2021/04/23 07:42:13;;;;;;;19.15;4.55;;;12.00;91.50;;;;;;1917516;73;21042;-65
2021/04/23 07:44:41;;;;;;;17.73;4.40;;;12.00;91.70;;;;;;1913336;73;21514;-66
2021/04/23 07:47:09;;;;;;;20.15;4.62;;;12.10;92.20;;;;;;1922417;73;21112;-65
2021/04/23 07:49:37;;;;;;;15.65;4.10;;;12.20;91.80;;;;;;1922915;73;21046;-66
2021/04/23 07:52:05;;;;;;;16.15;3.20;;;12.30;91.50;;;;;;1914588;73;21112;-67
2021/04/23 07:54:33;;;;;;;14.23;3.83;;;12.40;90.20;;;;;;1914715;73;21046;-67
2021/04/23 07:57:01;;;;;;;15.30;5.37;;;12.50;90.00;;;;;;1912423;73;21194;-67
2021/04/23 07:59:28;;;;;;;12.63;3.58;;;12.50;89.60;;;;;;1918699;73;21124;-67
2021/04/23 08:01:56;;;;;;;13.60;3.17;;;12.50;87.40;;;;;;1920259;73;21635;-67
2021/04/23 08:04:25;;;;;;;17.42;3.60;;;12.50;86.50;;;;;;1918205;73;21630;-67
2021/04/23 08:06:52;;;;;;;16.60;3.17;;;12.50;86.60;;;;;;1915740;73;21162;-67
2021/04/23 08:09:20;;;;;;;13.30;3.02;;;12.60;86.40;;;;;;1919596;73;21513;-67
2021/04/23 08:11:47;;;;;;;11.00;3.27;;;12.50;86.30;;;;;;1915607;73;21092;-67
2021/04/23 08:14:15;;;;;;;12.68;3.35;;;12.60;86.60;;;;;;1923322;73;21069;-66
2021/04/23 08:16:43;;;;;;;13.20;3.12;;;12.60;86.00;;;;;;1917595;73;21090;-67
2021/04/23 08:19:10;;;;;;;17.32;3.42;;;12.60;86.50;;;;;;1920640;73;21185;-67
2021/04/23 08:21:38;;;;;;;19.20;4.00;;;12.70;86.90;;;;;;1918510;73;21096;-67
2021/04/23 08:24:06;;;;;;;21.17;3.22;;;12.70;86.30;;;;;;1918077;73;21162;-66
2021/04/23 08:26:35;;;;;;;13.43;2.90;;;12.80;87.60;;;;;;1918862;73;21164;-67
2021/04/23 08:29:03;;;;;;;15.68;3.55;;;12.90;88.60;;;;;;1918150;73;21146;-67
2021/04/23 08:31:31;;;;;;;13.35;3.30;;;13.10;87.20;;;;;;1922168;73;21030;-67
2021/04/23 08:33:58;;;;;;;14.38;2.92;;;13.10;86.80;;;;;;1920862;73;21165;-67
2021/04/23 08:36:26;;;;;;;12.80;3.30;;;13.10;85.40;;;;;;1917427;73;21037;-67
2021/04/23 08:38:53;;;;;;;13.40;3.42;;;13.00;84.10;;;;;;1911490;73;21586;-66
2021/04/23 08:41:21;;;;;;;13.55;3.60;;;13.00;84.80;;;;;;1915148;73;21186;-66
2021/04/23 08:43:48;;;;;;;11.80;3.00;;;13.10;85.80;;;;;;1916050;73;21140;-66
2021/04/23 08:46:16;;;;;;;13.30;2.90;;;13.10;85.10;;;;;;1916945;73;21196;-69
2021/04/23 08:48:44;;;;;;;17.70;3.37;;;13.20;84.50;;;;;;1916306;73;21097;-67
2021/04/23 08:51:13;;;;;;;17.60;3.12;;;13.30;84.80;;;;;;1917870;73;21220;-67
2021/04/23 08:53:41;;;;;;;12.63;3.02;;;13.30;84.20;;;;;;1913463;73;21183;-68
2021/04/23 08:56:08;;;;;;;17.87;3.60;;;13.40;84.00;;;;;;1919514;73;21163;-67
2021/04/23 08:58:36;;;;;;;16.35;3.65;;;13.40;83.70;;;;;;1921445;73;21245;-67
2021/04/23 09:01:04;;;;;;;16.23;3.35;;;13.50;84.10;;;;;;1917380;73;21089;-67
2021/04/23 09:03:31;;;;;;;15.72;3.25;;;13.50;84.90;;;;;;1917363;73;21112;-66
2021/04/23 09:06:14;;;;;;;19.65;3.40;;;13.30;83.20;;;;;;1915625;73;21136;-66
2021/04/23 09:08:48;;;;;;;;;;;13.40;84.80;;;;;;1925093;73;21088;-66
2021/04/23 09:11:18;;;;;;;12.80;3.40;;;13.40;84.70;;;;;;1918905;73;20178;-66
2021/04/23 09:13:57;;;;;;;11.75;2.80;;;13.50;85.10;;;;;;1917916;73;21210;-66
2021/04/23 09:16:28;;;;;;;19.75;3.65;;;13.50;82.50;;;;;;1918384;73;21025;-66
2021/04/23 09:18:58;;;;;;;17.23;3.67;;;13.50;84.10;;;;;;1912653;73;22075;-65
2021/04/23 09:21:26;;;;;;;16.37;3.45;;;13.60;83.90;;;;;;1918717;73;21116;-67
2021/04/23 09:23:55;;;;;;;14.68;3.17;;;13.60;83.00;;;;;;1914177;74;21053;-68
2021/04/23 09:26:37;;;;;;;17.05;3.30;;;13.70;84.80;;;;;;1914818;73;21581;-68
2021/04/23 09:29:07;;;;;;;19.10;3.30;;;13.80;83.30;;;;;;1910572;74;21191;-67
2021/04/23 09:31:36;;;;;;;17.65;3.50;;;13.70;82.70;;;;;;1916047;73;21215;-67
2021/04/23 09:34:06;;;;;;;18.73;6.40;;;13.80;83.50;;;;;;1915465;73;21057;-67
2021/04/23 09:36:43;;;;;;;14.87;3.77;;;13.90;82.30;;;;;;1913349;73;21037;-66
2021/04/23 09:39:08;;;;;;;15.70;3.00;;;14.00;81.90;;;;;;1919211;73;22167;-67
2021/04/23 09:41:36;;;;;;;10.35;2.52;;;14.00;79.40;;;;;;1922608;73;21186;-67
2021/04/23 09:44:05;;;;;;;11.00;2.75;;;14.10;79.90;;;;;;1919150;73;21144;-67
2021/04/23 09:46:38;;;;;;;18.42;3.10;;;14.20;81.10;;;;;;1918658;73;21144;-67
2021/04/23 09:49:15;;;;;;;11.90;2.98;;;14.40;79.90;;;;;;1915389;73;21065;-67
2021/04/23 09:51:43;;;;;;;16.62;3.05;;;14.20;77.00;;;;;;1919168;73;21190;-66
2021/04/23 09:54:19;;;;;;;12.68;3.00;;;14.30;76.60;;;;;;1920514;73;21139;-67
2021/04/23 09:56:47;;;;;;;11.03;2.70;;;14.40;79.80;;;;;;1917974;73;21127;-66
2021/04/23 09:59:20;;;;;;;15.43;3.40;;;14.50;79.70;;;;;;1915951;73;21088;-66
2021/04/23 10:02:02;;;;;;;14.95;3.02;;;14.50;80.70;;;;;;1917948;73;21146;-67
2021/04/23 10:04:33;;;;;;;14.53;3.00;;;14.60;82.30;;;;;;1917139;73;21081;-68
2021/04/23 10:07:12;;;;;;;16.00;3.33;;;14.70;81.70;;;;;;1907038;73;21124;-68
2021/04/23 10:10:04;;;;;;;13.93;2.92;;;14.70;79.90;;;;;;1916886;73;21542;-67
2021/04/23 10:12:35;;;;;;;18.50;3.57;;;14.80;78.00;;;;;;1912147;73;21570;-67
2021/04/23 10:15:06;;;;;;;15.78;3.02;;;14.90;79.60;;;;;;1912145;73;21819;-67
2021/04/23 10:17:34;;;;;;;16.20;3.15;;;15.00;80.10;;;;;;1912997;73;21609;-67
2021/04/23 10:20:02;;;;;;;17.55;3.10;;;15.00;77.90;;;;;;1919504;73;21154;-66
2021/04/23 10:22:29;;;;;;;13.40;2.90;;;15.00;78.80;;;;;;1920694;73;21073;-66
2021/04/23 10:24:56;;;;;;;17.77;3.27;;;14.90;79.10;;;;;;1924142;73;21017;-67
2021/04/23 10:27:24;;;;;;;15.18;3.90;;;15.00;80.50;;;;;;1918595;73;21076;-67
2021/04/23 10:29:53;;;;;;;12.05;2.87;;;15.00;79.20;;;;;;1916920;73;22114;-67
2021/04/23 10:32:23;;;;;;;15.15;3.30;;;15.10;78.50;;;;;;1912690;73;21564;-67
2021/04/23 10:34:50;;;;;;;14.78;2.90;;;15.10;79.70;;;;;;1915466;73;21103;-67
2021/04/23 10:37:18;;;;;;;17.45;3.90;;;15.20;78.20;;;;;;1916957;73;21124;-67
2021/04/23 10:39:48;;;;;;;11.90;2.90;;;15.30;76.20;;;;;;1918416;73;21127;-67
2021/04/23 10:42:35;;;;;;;12.78;2.90;;;15.30;78.60;;;;;;1921159;73;21058;-67
2021/04/23 10:45:03;;;;;;;13.32;3.20;;;15.40;79.30;;;;;;1915300;73;21124;-68
2021/04/23 10:47:33;;;;;;;11.57;3.00;;;15.40;78.20;;;;;;1923125;73;21604;-67
2021/04/23 10:50:18;;;;;;;17.73;3.10;;;15.40;77.60;;;;;;1914530;73;21084;-67
2021/04/23 10:53:03;;;;;;;14.75;2.50;;;15.30;77.70;;;;;;1918026;73;21140;-67
2021/04/23 10:55:42;;;;;;;11.43;3.65;;;15.60;75.30;;;;;;1916825;73;21009;-68
2021/04/23 10:58:12;;;;;;;16.82;3.15;;;15.70;75.40;;;;;;1919182;73;21163;-68
2021/04/23 11:00:46;;;;;;;15.00;3.62;;;15.90;78.20;;;;;;1923041;73;21728;-69
2021/04/23 11:03:25;;;;;;;13.98;2.62;;;16.00;78.70;;;;;;1921107;73;21194;-68
2021/04/23 11:05:55;;;;;;;10.90;2.67;;;16.00;76.10;;;;;;1915618;73;21115;-67
2021/04/23 11:08:25;;;;;;;11.90;2.47;;;16.00;74.90;;;;;;1919951;73;21154;-68
2021/04/23 11:11:13;;;;;;;12.75;2.80;;;16.10;77.20;;;;;;1915319;73;21077;-68
2021/04/23 11:13:43;;;;;;;12.82;3.20;;;16.20;74.20;;;;;;1920014;73;21166;-67
2021/04/23 11:16:23;;;;;;;17.87;3.75;;;16.20;76.10;;;;;;1908824;73;21021;-68
2021/04/23 11:18:54;;;;;;;13.50;3.08;;;16.30;73.00;;;;;;1916600;73;21628;-67
2021/04/23 11:21:37;;;;;;;12.23;2.75;;;16.30;71.70;;;;;;1918619;73;21171;-67
2021/04/23 11:24:17;;;;;;;18.10;3.02;;;16.40;72.90;;;;;;1918577;73;21637;-66
2021/04/23 11:29:34;;;;;;;11.80;2.75;;;16.50;71.20;;;;;;1914987;73;21129;-65
2021/04/23 11:32:13;;;;;;;10.13;2.72;;;16.60;71.40;;;;;;1918096;73;21053;-66
2021/04/23 11:34:52;;;;;;;11.30;2.75;;;16.70;70.30;;;;;;1916977;73;21113;-66
2021/04/23 11:37:26;;;;;;;14.45;2.90;;;16.80;72.00;;;;;;1919183;73;21108;-64
2021/04/23 11:39:56;;;;;;;11.95;3.00;;;16.80;72.90;;;;;;1921193;73;21037;-66
2021/04/23 11:42:30;;;;;;;15.48;2.80;;;16.80;71.10;;;;;;1916383;73;21029;-66
2021/04/23 11:45:09;;;;;;;10.95;2.45;;;16.80;72.00;;;;;;1921455;73;21230;-66
2021/04/23 11:47:40;;;;;;;16.30;2.77;;;17.00;71.00;;;;;;1917132;73;21710;-66
2021/04/23 11:50:11;;;;;;;7.97;2.33;;;17.10;70.00;;;;;;1921282;73;21146;-67
2021/04/23 11:52:41;;;;;;;15.70;2.98;;;17.20;70.40;;;;;;1919967;73;21180;-67
2021/04/23 11:55:15;;;;;;;10.50;3.05;;;17.60;68.90;;;;;;1918753;73;21170;-67
2021/04/23 11:57:44;;;;;;;11.63;2.30;;;17.90;71.20;;;;;;1921357;73;21116;-67
2021/04/23 12:00:18;;;;;;;11.48;2.30;;;18.10;69.00;;;;;;1918137;73;21033;-66
2021/04/23 12:02:52;;;;;;;8.05;1.65;;;18.50;64.70;;;;;;1915602;73;21085;-67
2021/04/23 12:05:28;;;;;;;10.32;2.40;;;18.80;64.50;;;;;;1918626;73;21631;-67
2021/04/23 12:07:59;;;;;;;6.80;1.92;;;19.00;62.20;;;;;;1913194;73;21683;-67
2021/04/23 12:10:28;;;;;;;8.90;2.00;;;18.90;62.20;;;;;;1921291;73;21118;-67
2021/04/23 12:12:56;;;;;;;12.73;2.02;;;18.80;62.60;;;;;;1919538;73;21018;-66
2021/04/23 12:15:32;;;;;;;11.15;2.55;;;18.80;60.80;;;;;;1917510;73;21119;-66
2021/04/23 12:18:02;;;;;;;13.30;2.58;;;18.80;60.70;;;;;;1919152;73;21198;-67
2021/04/23 12:20:34;;;;;;;7.35;2.10;;;18.70;64.90;;;;;;1918705;73;21605;-67
2021/04/23 12:23:01;;;;;;;;;;;18.60;59.60;;;;;;1920421;73;21234;-67
2021/04/23 12:25:35;;;;;;;8.15;1.90;;;18.60;62.00;;;;;;1920266;73;20220;-67
2021/04/23 12:28:33;;;;;;;12.13;2.60;;;18.50;62.60;;;;;;1915312;73;21624;-67
2021/04/23 12:31:24;;;;;;;8.68;1.90;;;18.50;64.40;;;;;;1914785;73;21630;-66
2021/04/23 12:33:55;;;;;;;11.95;2.45;;;18.40;63.70;;;;;;1917329;73;21092;-67
2021/04/23 12:36:42;;;;;;;14.38;2.50;;;18.40;63.30;;;;;;1921802;73;21092;-67
2021/04/23 12:39:22;;;;;;;10.28;2.87;;;18.40;62.70;;;;;;1919038;73;21250;-67
2021/04/23 12:41:55;;;;;;;9.50;2.33;;;18.60;62.30;;;;;;1918513;73;21205;-66
2021/04/23 12:44:28;;;;;;;13.68;2.92;;;18.60;61.00;;;;;;1918376;73;21107;-66
2021/04/23 12:47:07;;;;;;;13.90;2.50;;;18.70;60.70;;;;;;1913948;73;21117;-66
2021/04/23 12:49:43;;;;;;;8.85;2.80;;;18.70;62.00;;;;;;1917694;73;21174;-67
2021/04/23 12:52:16;;;;;;;10.45;2.65;;;18.70;62.40;;;;;;1916606;73;21162;-66
2021/04/23 12:54:49;;;;;;;8.48;2.70;;;18.80;61.30;;;;;;1915932;73;21602;-67